Shreveport Regional Airport
KSHV : now visible

Airfield :











YOU CAN JOIN US ON...

 
LOGIN :

Register | Disclaimer

   EN    FR    IT 

 









Legend :    VFR   Marginal VFR   IFR   Intensive IFR   Very Intensive IFR
Visi :
Ceiling :
>= 8 km
>= 3000ft
5 to 8 km
1000 to 3000 ft
1500m to 5 km
500 to 1000 ft
800 to 1500m
200 to 500 ft
< 800m
< 200 ft
Symbols :   Thunderstorms  Fog  Heavy snow  Heavy precipitations  Wind > 20 kt







- Airport Elevation : 258 ft
- IATA code : SHV


KSHV - Shreveport Regional

CURRENT METAR :
  • 210356Z 15005KT 10SM SCT085 BKN250 23/21 A3009 RMK AO2 SLP185 T02280211

EXPIRED METARs :
  • 210256Z 14006KT 10SM SCT075 BKN250 23/21 A3008 RMK AO2 SLP182 T02330211 53004
  • 210156Z 14006KT 10SM SCT075 BKN250 24/22 A3006 RMK AO2 SLP177 T02390217

TAF KSHV
Valid from the 21 at 00:00 until the 22 at 00:00 UTC


202320Z 2100/2124 15007KT P6SM VCSH FEW025 SCT100 OVC250
FM210200 13006KT P6SM FEW025 SCT100 OVC250
FM211100 13006KT P6SM BKN015
FM211600 16010G16KT P6SM SCT020 SCT040
No reported NOTAMs for that airfield.



MET'MAP, your aeronautical weather chart ! - Copyright ORBIFLY December 2007 - Disclaimer

ORBIFLY MET'MAP TEAM :

Programming & Development : Alexandra Zaïnal
Concept & Development : Baudouin d'Aumeries
Co-Development & Prog : Marc-Olivier Méhu
Technical & hardware support : Manuel Goepfert

Contact : metmap@orbifly.com




SOURCES & CREDITS :

   NOAA       Earth
Advisory